• Join FlightAware (Why Join?)
  • Login
  • US Flag 
10:19PM EDT


 

Airport Tracker/Info


-or-


 

Live Flight TrackerFlight Track Log ✈ KAP188 ✈ 18-May-2013 ✈ KCGI - KSTL

Flight Track Log - Related Links

Times and Time Zones

All times are in EDT time to prevent confusion due to time zone crossing. See the KAP188 flight status page for this flight to view local times or setup timezone preferences in your user account.

Time Position Orientation Groundspeed Altitude Reporting Facility
EDT Latitude Longitude Course Direction KTS MPH feet Rate Location/Type
08:08AM 37.2383 -89.5439 299° West 121 139 1,300  Level Kansas City Center
08:09AM 37.2567 -89.5856 299° West 143 165 1,800 660 Climbing Memphis Center
08:10AM 37.2881 -89.6061 332° Northwest 136 157 2,400 540 Climbing Memphis Center
08:11AM 37.3172 -89.6267 331° Northwest 136 157 2,900 480 Climbing Memphis Center
08:12AM 37.3528 -89.6447 338° Northwest 136 157 3,400 540 Climbing Memphis Center
08:13AM 37.3903 -89.6600 342° North 136 157 4,000 420 Climbing Memphis Center
08:13AM 37.4122 -89.6650 350° North 144 166 4,100 60 Climbing Kansas City Center
08:14AM 37.4542 -89.6861 338° Northwest 157 181 4,100  Level Kansas City Center
08:15AM 37.4986 -89.7078 339° North 168 193 4,100  Level Kansas City Center
08:16AM 37.5411 -89.7331 335° Northwest 169 194 4,100  Level Kansas City Center
08:17AM 37.5800 -89.7539 337° Northwest 170 196 4,100  Level Kansas City Center
08:18AM 37.6239 -89.7772 337° Northwest 170 196 4,100  Level Kansas City Center
08:19AM 37.6775 -89.8047 338° Northwest 172 198 4,100  Level Kansas City Center
08:20AM 37.7219 -89.8283 337° Northwest 172 198 4,100  Level Kansas City Center
08:21AM 37.7661 -89.8497 339° North 171 197 4,100  Level Kansas City Center
08:22AM 37.8094 -89.8731 337° Northwest 170 196 4,100  Level Kansas City Center
08:23AM 37.8550 -89.8958 338° Northwest 171 197 4,100  Level Kansas City Center
08:24AM 37.9028 -89.9208 338° Northwest 172 198 4,100  Level Kansas City Center
08:25AM 37.9472 -89.9433 338° Northwest 173 199 4,100  Level Kansas City Center
08:26AM 37.9917 -89.9669 337° Northwest 173 199 4,100  Level Kansas City Center
08:28AM 38.0367 -89.9908 337° Northwest 174 200 4,100  Level Kansas City Center
08:29AM 38.0814 -90.0136 338° Northwest 174 200 4,100  Level Kansas City Center
08:30AM 38.1225 -90.0356 337° Northwest 173 199 4,100  Level Kansas City Center
08:31AM 38.1639 -90.0628 333° Northwest 173 199 4,100  Level Kansas City Center
08:32AM 38.1953 -90.1117 309° West 174 200 4,100  Level Kansas City Center
08:33AM 38.2342 -90.1678 311° West 177 204 4,100  Level Kansas City Center
08:34AM 38.2664 -90.2133 312° West 175 201 4,100  Level Kansas City Center
08:35AM 38.2989 -90.2592 312° West 174 200 4,100  Level Kansas City Center
08:36AM 38.3314 -90.3053 312° West 175 201 4,100  Level Kansas City Center
08:37AM 38.3642 -90.3511 312° West 175 201 4,100  Level Kansas City Center
08:38AM 38.3969 -90.3978 312° West 175 201 4,100  Level Kansas City Center
08:39AM 38.4292 -90.4453 311° West 176 203 4,100  Level Kansas City Center
08:40AM 38.4694 -90.4792 327° Northwest 182 209 4,100  Level Kansas City Center
08:41AM 38.5144 -90.5017 339° North 177 204 4,100  Level Kansas City Center
08:42AM 38.5614 -90.5239 340° North 177 204 4,100 -60 Level Kansas City Center
08:43AM 38.6081 -90.5467 339° North 178 205 4,000  Descending Kansas City Center
08:44AM 38.6544 -90.5697 339° North 178 205 4,100  Climbing Kansas City Center
08:45AM 38.7014 -90.5919 340° North 178 205 4,100  Level Kansas City Center
08:46AM 38.7508 -90.5908 North 179 206 4,100 -60 Level Kansas City Center
08:47AM 38.7986 -90.5892 North 174 200 4,000 -540 Descending Kansas City Center
08:48AM 38.8311 -90.5447 47° Northeast 188 216 3,100 -600 Descending Kansas City Center
08:49AM 38.8161 -90.4919 110° East 167 192 2,900 -420 Descending Kansas City Center
08:50AM 38.7967 -90.4547 124° Southeast 143 165 2,300 -780 Descending Kansas City Center
08:51AM 38.7744 -90.4131 124° Southeast 126 145 1,400 -720 Descending Kansas City Center
08:52AM 38.7586 -90.3803 122° Southeast 115 132 900 -360 Descending Kansas City Center
08:53AM 38.7433 -90.3503 123° Southeast 113 130 700 -240 Descending Kansas City Center